Hangzhou Xiaoshan International Airport

Airport
ICAO code: 
ZSHC
IATA Code: 
HGH
Summary
ICAO Region: 
APAC
Territory: 
Location: 
Xiaoshan, Zhejiang
Serving: 
Hangzhou
Elevation: 
23 ft
Coordinates: 
Aerial View: 
30° 13' 45.998" N, 120° 26' 3.998" E
Metar
Observation
ZSHC 291930Z 32004MPS 280V350 6000 BKN020 14/09 Q1021 NOSIG
Station
Hangzhou
Date/Time
2021-11-29 19:30:00
Wind direction
320°
Lowest cloud amount
broken clouds
Temperature
14°C
Dew point
9°C
Humidity
71%
QNH
1021 hPa
Weather condition
n/a

Hangzhou Xiaoshan International Airport is the principal airport serving Hangzhou, a major city in the Yangtze River Delta region of the People's Republic of China and the provincial capital of Zhejiang.

Runways

Designator Length Width Surface Rops
7/25 3600 45 CON Yes/Yes
Airport map: 
Aerial View: 

SKYbrary Partners:

Safety knowledge contributed by: